Time;durP1;ratioP1;P1;durP2;ratioP2;P2;SDS_P1;SDS_P2;PMS_P1;PMS_P2;Temp;Humidity;BMP_temperature;BMP_pressure;BME280_temperature;BME280_humidity;BME280_pressure;Samples;Min_cycle;Max_cycle;Signal;HPM_P1;HPM_P2
2021/03/30 00:00:21;;;;;;;33.08;16.88;;;12.40;91.70;;;;;;5070570;28;20025;-71
2021/03/30 00:02:47;;;;;;;29.77;15.55;;;12.30;92.00;;;;;;5065326;28;20019;-70
2021/03/30 00:05:13;;;;;;;28.45;16.02;;;12.40;92.10;;;;;;5064590;28;20107;-70
2021/03/30 00:07:38;;;;;;;32.28;15.27;;;12.30;92.10;;;;;;5068122;28;20111;-71
2021/03/30 00:10:06;;;;;;;28.98;15.70;;;12.30;92.30;;;;;;5069803;28;20196;-71
2021/03/30 00:12:32;;;;;;;23.85;15.10;;;12.30;92.30;;;;;;5066103;28;20044;-69
2021/03/30 00:14:57;;;;;;;28.92;16.40;;;12.30;92.80;;;;;;5070467;28;20075;-71
2021/03/30 00:17:23;;;;;;;27.85;15.40;;;12.20;92.70;;;;;;5066140;28;20074;-71
2021/03/30 00:19:49;;;;;;;27.58;14.68;;;12.20;92.90;;;;;;5065022;28;20028;-70
2021/03/30 00:22:14;;;;;;;26.13;13.05;;;12.20;93.00;;;;;;5069278;28;20029;-70
2021/03/30 00:24:40;;;;;;;20.00;11.35;;;12.30;93.50;;;;;;5072800;28;20021;-70
2021/03/30 00:27:06;;;;;;;18.73;13.07;;;12.30;93.60;;;;;;5068316;28;20037;-71
2021/03/30 00:29:42;;;;;;;24.02;13.57;;;12.30;93.60;;;;;;5067079;28;20025;-70
2021/03/30 00:32:09;;;;;;;24.73;14.45;;;12.30;93.20;;;;;;5070023;28;20020;-70
2021/03/30 00:34:35;;;;;;;28.05;15.68;;;12.20;92.80;;;;;;5072784;28;20033;-71
2021/03/30 00:37:00;;;;;;;28.52;17.65;;;12.10;92.80;;;;;;5077091;28;20029;-71
2021/03/30 00:39:26;;;;;;;30.55;17.08;;;12.10;93.30;;;;;;5072931;28;20043;-71
2021/03/30 00:41:51;;;;;;;34.72;17.77;;;12.10;93.40;;;;;;5067927;28;20032;-70
2021/03/30 00:44:17;;;;;;;29.88;16.85;;;12.00;93.50;;;;;;5068529;28;20036;-71
2021/03/30 00:46:45;;;;;;;32.35;17.42;;;12.00;93.80;;;;;;5071436;28;20028;-71
2021/03/30 00:49:16;;;;;;;32.08;17.52;;;12.00;93.90;;;;;;5066181;28;20028;-70
2021/03/30 00:51:43;;;;;;;27.70;16.08;;;12.00;93.50;;;;;;5070285;28;20567;-71
2021/03/30 00:54:08;;;;;;;35.90;17.23;;;12.00;94.20;;;;;;5064056;28;20028;-71
2021/03/30 00:56:37;;;;;;;32.65;17.13;;;11.90;94.10;;;;;;5066832;28;20063;-71
2021/03/30 00:59:03;;;;;;;29.75;16.38;;;12.00;94.00;;;;;;5071328;28;20054;-70
2021/03/30 01:01:29;;;;;;;27.65;16.45;;;11.90;94.30;;;;;;5070837;28;20028;-71
2021/03/30 01:03:54;;;;;;;26.67;16.58;;;11.90;94.50;;;;;;5067430;28;20021;-70
2021/03/30 01:06:20;;;;;;;28.52;16.73;;;11.90;94.50;;;;;;5067019;28;20028;-70
2021/03/30 01:09:23;;;;;;;31.90;15.95;;;11.90;94.60;;;;;;5067280;28;20530;-71
2021/03/30 01:12:26;;;;;;;31.98;15.48;;;11.90;94.70;;;;;;5068927;28;20115;-70
2021/03/30 01:15:04;;;;;;;31.85;16.73;;;11.90;95.00;;;;;;5070236;28;20109;-71
2021/03/30 01:17:35;;;;;;;27.45;15.43;;;11.90;95.10;;;;;;5066293;28;20384;-70
2021/03/30 01:20:11;;;;;;;29.33;14.70;;;11.80;95.80;;;;;;5074723;28;20021;-71
2021/03/30 01:23:14;;;;;;;26.00;15.23;;;11.80;95.60;;;;;;5062983;28;20112;-70
2021/03/30 01:25:47;;;;;;;30.00;15.88;;;11.90;95.10;;;;;;5063376;28;20029;-70
2021/03/30 01:28:28;;;;;;;30.77;16.38;;;11.90;94.70;;;;;;5067656;28;20075;-70
2021/03/30 01:30:54;;;;;;;27.65;15.60;;;11.80;94.40;;;;;;5069788;28;20028;-70
2021/03/30 01:33:26;;;;;;;28.80;16.05;;;11.80;94.90;;;;;;5067641;28;20104;-70
2021/03/30 01:35:54;;;;;;;31.20;17.25;;;11.70;95.60;;;;;;5063445;28;20540;-69
2021/03/30 01:38:21;;;;;;;29.42;16.20;;;11.70;95.70;;;;;;5071399;28;20042;-71
2021/03/30 01:40:49;;;;;;;23.73;14.52;;;11.50;95.70;;;;;;5066311;28;20115;-71
2021/03/30 01:43:16;;;;;;;25.30;15.38;;;11.50;96.50;;;;;;5072479;28;20070;-71
2021/03/30 01:45:42;;;;;;;22.75;14.73;;;11.40;96.70;;;;;;5071637;28;20063;-70
2021/03/30 01:48:10;;;;;;;25.05;14.50;;;11.30;96.40;;;;;;5067487;28;20408;-71
2021/03/30 01:50:37;;;;;;;25.67;13.65;;;11.20;96.80;;;;;;5064306;28;20021;-71
2021/03/30 01:53:03;;;;;;;29.25;16.63;;;11.20;96.80;;;;;;5068669;28;20036;-71
2021/03/30 01:55:30;;;;;;;31.80;17.08;;;11.20;96.70;;;;;;5066049;28;20044;-71
2021/03/30 01:57:58;;;;;;;27.13;16.13;;;11.20;96.70;;;;;;5072879;28;20032;-70
2021/03/30 02:00:29;;;;;;;31.98;18.48;;;11.20;96.90;;;;;;5067595;28;20032;-68
2021/03/30 02:02:55;;;;;;;36.08;18.02;;;11.20;96.60;;;;;;5069905;28;20064;-70
2021/03/30 02:05:22;;;;;;;35.22;18.15;;;11.20;96.60;;;;;;5062271;28;20028;-71
2021/03/30 02:07:53;;;;;;;33.45;19.70;;;11.20;96.70;;;;;;5068742;28;20031;-71
2021/03/30 02:10:31;;;;;;;29.60;17.15;;;11.20;96.70;;;;;;5064934;28;20056;-71
2021/03/30 02:12:59;;;;;;;32.40;17.17;;;11.10;96.80;;;;;;5071813;28;20060;-70
2021/03/30 02:15:26;;;;;;;34.90;19.20;;;11.10;96.80;;;;;;5059271;28;20041;-71
2021/03/30 02:18:00;;;;;;;34.65;18.40;;;11.10;96.60;;;;;;5065689;28;20059;-71
2021/03/30 02:20:42;;;;;;;36.33;19.23;;;11.00;96.90;;;;;;5069795;28;20161;-70
2021/03/30 02:23:22;;;;;;;30.33;17.08;;;10.90;97.00;;;;;;5065491;28;20051;-71
2021/03/30 02:25:50;;;;;;;32.60;17.92;;;10.90;96.90;;;;;;5062109;28;20029;-71
2021/03/30 02:28:18;;;;;;;34.88;19.88;;;10.90;97.10;;;;;;5063371;28;20021;-70
2021/03/30 02:30:46;;;;;;;34.85;18.13;;;10.80;97.40;;;;;;5067182;28;20028;-71
2021/03/30 02:33:16;;;;;;;32.25;17.95;;;10.80;97.20;;;;;;5060322;28;20472;-70
2021/03/30 02:35:43;;;;;;;32.88;19.38;;;10.70;97.40;;;;;;5067884;28;20047;-71
2021/03/30 02:38:09;;;;;;;30.08;17.35;;;10.70;97.60;;;;;;5066894;28;20075;-71
2021/03/30 02:40:35;;;;;;;30.52;17.55;;;10.60;97.70;;;;;;5054798;28;20040;-70
2021/03/30 02:43:03;;;;;;;32.60;19.70;;;10.60;98.00;;;;;;5070032;28;20422;-70
2021/03/30 02:45:30;;;;;;;30.45;16.65;;;10.60;98.30;;;;;;5059008;28;20056;-71
2021/03/30 02:47:59;;;;;;;30.98;17.58;;;10.40;98.30;;;;;;5068695;28;20017;-71
2021/03/30 02:50:27;;;;;;;35.10;17.73;;;10.40;98.40;;;;;;5067346;28;20024;-71
2021/03/30 02:52:54;;;;;;;33.72;19.17;;;10.40;98.80;;;;;;5065043;28;20060;-70
2021/03/30 02:55:22;;;;;;;31.83;19.00;;;10.40;99.10;;;;;;5063716;28;20029;-71
2021/03/30 02:57:48;;;;;;;30.15;17.83;;;10.40;98.80;;;;;;5065055;28;20481;-71
2021/03/30 03:00:15;;;;;;;31.70;17.95;;;10.40;98.50;;;;;;5064593;28;20099;-71
2021/03/30 03:02:43;;;;;;;33.67;18.83;;;10.40;98.50;;;;;;5064987;28;20025;-70
2021/03/30 03:05:11;;;;;;;36.35;18.60;;;10.40;98.60;;;;;;5062272;28;20032;-71
2021/03/30 03:07:38;;;;;;;29.25;15.75;;;10.30;99.10;;;;;;5067541;28;20424;-70
2021/03/30 03:10:06;;;;;;;31.33;17.27;;;10.00;99.90;;;;;;5061505;28;20108;-70
2021/03/30 03:12:35;;;;;;;29.40;16.75;;;9.80;99.90;;;;;;5064078;28;20032;-70
2021/03/30 03:15:03;;;;;;;30.52;16.35;;;9.60;99.90;;;;;;5060287;28;20034;-70
2021/03/30 03:17:30;;;;;;;29.88;15.98;;;9.50;99.90;;;;;;5065410;28;20028;-70
2021/03/30 03:19:56;;;;;;;29.08;15.77;;;9.40;99.90;;;;;;5072387;28;20027;-71
2021/03/30 03:22:23;;;;;;;32.65;16.95;;;9.40;99.90;;;;;;5061316;28;20024;-68
2021/03/30 03:24:50;;;;;;;32.90;17.42;;;9.40;99.90;;;;;;5063083;28;20500;-71
2021/03/30 03:27:16;;;;;;;30.58;17.45;;;9.40;99.90;;;;;;5063773;28;20021;-70
2021/03/30 03:29:42;;;;;;;34.63;17.95;;;9.40;99.90;;;;;;5065744;28;20447;-71
2021/03/30 03:32:09;;;;;;;29.17;16.58;;;9.40;99.90;;;;;;5078192;28;20078;-70
2021/03/30 03:34:38;;;;;;;31.73;18.20;;;9.40;99.90;;;;;;5062508;28;20108;-71
2021/03/30 03:37:05;;;;;;;31.65;16.27;;;9.50;99.90;;;;;;5084462;28;20024;-70
2021/03/30 03:39:30;;;;;;;30.42;15.68;;;9.60;99.90;;;;;;5068969;28;20482;-70
2021/03/30 03:41:57;;;;;;;28.60;14.98;;;9.30;99.90;;;;;;5065431;28;20103;-70
2021/03/30 03:44:28;;;;;;;26.77;13.52;;;9.10;99.90;;;;;;5069352;28;20068;-70
2021/03/30 03:46:54;;;;;;;24.77;12.93;;;9.00;99.90;;;;;;5067935;28;20029;-69
2021/03/30 03:49:22;;;;;;;28.52;15.40;;;8.80;99.90;;;;;;5073331;28;20028;-70
2021/03/30 03:52:02;;;;;;;29.50;15.73;;;9.00;99.90;;;;;;5070354;28;20029;-71
2021/03/30 03:54:28;;;;;;;28.08;14.63;;;9.00;99.90;;;;;;5061724;28;20040;-70
2021/03/30 03:57:11;;;;;;;30.10;16.13;;;9.10;99.90;;;;;;5070616;28;20021;-71
2021/03/30 03:59:39;;;;;;;27.73;14.93;;;9.10;99.90;;;;;;5064879;28;20021;-70
2021/03/30 04:02:20;;;;;;;25.30;14.70;;;9.10;99.90;;;;;;5061669;28;20366;-70
2021/03/30 04:04:51;;;;;;;32.35;16.25;;;9.10;99.90;;;;;;5064910;28;20028;-70
2021/03/30 04:07:23;;;;;;;33.00;16.75;;;9.20;99.90;;;;;;5061409;28;20055;-70
2021/03/30 04:09:52;;;;;;;31.90;15.95;;;9.10;99.90;;;;;;5065829;28;20687;-71
2021/03/30 04:12:20;;;;;;;26.58;15.52;;;9.00;99.90;;;;;;5069282;28;20538;-69
2021/03/30 04:14:46;;;;;;;32.80;16.50;;;8.90;99.90;;;;;;5064227;28;20372;-70
2021/03/30 04:17:16;;;;;;;33.38;18.50;;;8.80;99.90;;;;;;5070390;28;20081;-70
2021/03/30 04:19:42;;;;;;;35.72;18.17;;;8.70;99.90;;;;;;5067678;28;20111;-70
2021/03/30 04:22:09;;;;;;;33.97;18.35;;;8.60;99.90;;;;;;5071394;28;20108;-68
2021/03/30 04:24:35;;;;;;;35.55;18.60;;;8.60;99.90;;;;;;5067520;28;20103;-70
2021/03/30 04:27:00;;;;;;;40.70;18.90;;;8.50;99.90;;;;;;5065089;28;20548;-69
2021/03/30 04:29:26;;;;;;;33.90;19.35;;;8.50;99.90;;;;;;5068016;28;20498;-71
2021/03/30 04:31:52;;;;;;;39.20;21.90;;;8.50;99.90;;;;;;5071210;28;20376;-70
2021/03/30 04:34:18;;;;;;;43.10;20.40;;;8.50;99.90;;;;;;5058925;28;20428;-71
2021/03/30 04:36:43;;;;;;;46.13;23.38;;;8.50;99.90;;;;;;5065710;28;20469;-70
2021/03/30 04:39:09;;;;;;;39.30;20.70;;;8.60;99.90;;;;;;5068828;28;20489;-70
2021/03/30 04:41:34;;;;;;;35.80;18.63;;;8.50;99.90;;;;;;5062117;28;20474;-70
2021/03/30 04:44:00;;;;;;;35.58;18.83;;;8.40;99.90;;;;;;5071119;28;20101;-70
2021/03/30 04:46:26;;;;;;;32.83;16.13;;;8.30;99.90;;;;;;5067690;28;20021;-71
2021/03/30 04:48:51;;;;;;;27.25;15.20;;;8.20;99.90;;;;;;5067347;28;20089;-71
2021/03/30 04:51:17;;;;;;;32.08;15.93;;;8.10;99.90;;;;;;5067461;28;20017;-70
2021/03/30 04:53:43;;;;;;;36.08;18.70;;;8.00;99.90;;;;;;5065950;28;20040;-71
2021/03/30 04:56:08;;;;;;;39.65;19.27;;;8.00;99.90;;;;;;5064360;28;20072;-71
2021/03/30 04:58:34;;;;;;;40.65;20.20;;;7.90;99.90;;;;;;5072613;28;20031;-70
2021/03/30 05:01:00;;;;;;;38.10;19.30;;;7.90;99.90;;;;;;5069126;28;20033;-71
2021/03/30 05:03:25;;;;;;;42.33;19.02;;;8.00;99.90;;;;;;5063377;28;20020;-70
2021/03/30 05:05:51;;;;;;;45.47;20.50;;;8.00;99.90;;;;;;5065797;28;20036;-71
2021/03/30 05:08:17;;;;;;;42.78;21.42;;;8.10;99.90;;;;;;5067722;28;20021;-70
2021/03/30 05:10:42;;;;;;;37.38;20.33;;;8.10;99.90;;;;;;5071020;28;20024;-71
2021/03/30 05:13:08;;;;;;;40.50;20.50;;;8.20;99.90;;;;;;5070042;28;20166;-70
2021/03/30 05:15:34;;;;;;;40.58;21.02;;;8.20;99.90;;;;;;5065976;28;20173;-69
2021/03/30 05:17:59;;;;;;;38.97;20.02;;;8.20;99.90;;;;;;5072039;28;20028;-71
2021/03/30 05:20:25;;;;;;;43.58;22.02;;;8.10;99.90;;;;;;5076483;28;20024;-70
2021/03/30 05:22:50;;;;;;;38.38;20.83;;;8.00;99.90;;;;;;5059670;28;20131;-69
2021/03/30 05:25:16;;;;;;;41.50;21.80;;;7.90;99.90;;;;;;5063032;28;20059;-69
2021/03/30 05:27:42;;;;;;;41.13;20.90;;;7.80;99.90;;;;;;5069931;28;20017;-70
2021/03/30 05:30:10;;;;;;;41.45;21.38;;;7.70;99.90;;;;;;5064584;28;20074;-71
2021/03/30 05:32:36;;;;;;;39.17;20.60;;;7.70;99.90;;;;;;5060228;28;20009;-70
2021/03/30 05:35:04;;;;;;;40.92;22.13;;;7.80;99.90;;;;;;5067160;28;20392;-70
2021/03/30 05:37:29;;;;;;;42.08;22.98;;;7.80;99.90;;;;;;5066007;28;20021;-69
2021/03/30 05:39:55;;;;;;;48.45;23.77;;;7.80;99.90;;;;;;5070322;28;20362;-68
2021/03/30 05:42:21;;;;;;;42.67;21.27;;;7.90;99.90;;;;;;5058640;28;20538;-69
2021/03/30 05:44:50;;;;;;;39.50;20.50;;;7.90;99.90;;;;;;5069197;28;20051;-70
2021/03/30 05:47:26;;;;;;;46.25;21.27;;;7.90;99.90;;;;;;5064756;28;20013;-70
2021/03/30 05:49:53;;;;;;;42.78;19.20;;;7.80;99.90;;;;;;5071122;28;20028;-70
2021/03/30 05:52:28;;;;;;;40.67;19.27;;;7.80;99.90;;;;;;5067402;28;20060;-70
2021/03/30 05:54:56;;;;;;;45.65;20.25;;;7.80;99.90;;;;;;5065979;28;20067;-69
2021/03/30 05:57:29;;;;;;;45.03;21.25;;;7.80;99.90;;;;;;5071942;28;20029;-69
2021/03/30 05:59:59;;;;;;;38.50;20.08;;;7.70;99.90;;;;;;5064465;28;20051;-69
2021/03/30 06:02:40;;;;;;;37.30;18.40;;;7.80;99.90;;;;;;5064551;28;20067;-71
2021/03/30 06:05:07;;;;;;;37.97;19.52;;;7.70;99.90;;;;;;5065248;28;20779;-70
2021/03/30 06:07:36;;;;;;;40.40;19.15;;;7.80;99.90;;;;;;5057957;28;20021;-70
2021/03/30 06:10:08;;;;;;;45.95;21.13;;;7.90;99.90;;;;;;5063828;28;20048;-71
2021/03/30 06:12:33;;;;;;;47.13;21.40;;;7.90;99.90;;;;;;5066730;28;20043;-70
2021/03/30 06:15:05;;;;;;;41.63;19.58;;;8.00;99.90;;;;;;5056600;28;20123;-71
2021/03/30 06:17:51;;;;;;;42.58;20.17;;;8.00;99.90;;;;;;5061736;28;20017;-70
2021/03/30 06:20:29;;;;;;;42.88;21.10;;;8.00;99.90;;;;;;5065005;28;20036;-71
2021/03/30 06:22:58;;;;;;;43.13;18.95;;;8.10;99.90;;;;;;5063212;28;20032;-71
2021/03/30 06:25:42;;;;;;;37.38;18.20;;;8.00;99.90;;;;;;5069312;28;20028;-71
2021/03/30 06:28:19;;;;;;;44.38;20.95;;;8.10;99.90;;;;;;5067628;28;20108;-70
2021/03/30 06:31:09;;;;;;;38.50;21.05;;;8.10;99.90;;;;;;5062388;28;20024;-71
2021/03/30 06:33:49;;;;;;;41.17;18.63;;;8.10;99.90;;;;;;5067374;28;20388;-71
2021/03/30 06:36:25;;;;;;;44.58;20.05;;;8.10;99.90;;;;;;5067264;28;20029;-70
2021/03/30 06:39:03;;;;;;;38.83;19.77;;;8.10;99.90;;;;;;5055666;28;20025;-71
2021/03/30 06:42:18;;;;;;;36.15;18.27;;;8.20;99.90;;;;;;5072011;28;20389;-71
2021/03/30 06:44:28;;;;;;;38.13;20.27;;;8.40;99.90;;;;;;5065927;28;20127;-70
2021/03/30 06:47:15;;;;;;;36.53;19.80;;;8.50;99.90;;;;;;5069282;28;20118;-70
2021/03/30 06:49:53;;;;;;;36.80;18.67;;;8.50;99.90;;;;;;5065998;28;20029;-71
2021/03/30 06:52:30;;;;;;;34.40;19.58;;;8.50;99.90;;;;;;5070768;28;20016;-71
2021/03/30 06:55:09;;;;;;;40.55;19.55;;;8.60;99.90;;;;;;5074317;28;20075;-71
2021/03/30 06:57:46;;;;;;;39.25;18.88;;;8.70;99.90;;;;;;5072294;28;20472;-70
2021/03/30 07:00:25;;;;;;;41.17;19.95;;;8.80;99.90;;;;;;5062981;28;20059;-71
2021/03/30 07:02:53;;;;;;;46.15;21.50;;;9.00;99.90;;;;;;5069016;28;20039;-71
2021/03/30 07:05:26;;;;;;;38.10;20.10;;;9.00;99.90;;;;;;5065828;28;20511;-70
2021/03/30 07:07:56;;;;;;;;;;;9.10;99.90;;;;;;5073644;28;20364;-70
2021/03/30 07:10:22;;;;;;;39.55;20.58;;;9.20;99.90;;;;;;5066805;28;19951;-70
2021/03/30 07:12:49;;;;;;;40.95;19.42;;;9.30;99.90;;;;;;5059872;28;20091;-69
2021/03/30 07:15:17;;;;;;;41.38;18.85;;;9.40;99.90;;;;;;5071810;28;20037;-70
2021/03/30 07:17:43;;;;;;;37.97;20.60;;;9.40;99.90;;;;;;5069495;28;20103;-71
2021/03/30 07:20:10;;;;;;;38.25;19.98;;;9.50;99.90;;;;;;5064210;28;20035;-71
2021/03/30 07:22:41;;;;;;;43.00;20.80;;;9.50;99.90;;;;;;5061185;28;20029;-71
2021/03/30 07:25:11;;;;;;;38.60;20.15;;;9.70;99.90;;;;;;5066467;28;20435;-70
2021/03/30 07:27:52;;;;;;;37.83;17.98;;;9.70;99.90;;;;;;5056926;28;20025;-71
2021/03/30 07:30:19;;;;;;;38.72;19.30;;;9.80;99.90;;;;;;5069555;28;20107;-68
2021/03/30 07:33:02;;;;;;;35.55;17.40;;;9.80;99.90;;;;;;5071541;28;20044;-67
2021/03/30 07:35:32;;;;;;;30.33;15.55;;;10.00;99.90;;;;;;5071771;28;20035;-67
2021/03/30 07:38:17;;;;;;;33.40;15.98;;;10.10;99.90;;;;;;5071851;28;20029;-67
2021/03/30 07:40:43;;;;;;;23.73;13.38;;;10.30;99.90;;;;;;5064368;28;20054;-67
2021/03/30 07:43:12;;;;;;;25.33;14.10;;;10.50;99.90;;;;;;5070696;28;20042;-70
2021/03/30 07:45:42;;;;;;;27.63;14.07;;;10.60;99.90;;;;;;5074394;28;20033;-70
2021/03/30 07:48:13;;;;;;;29.85;14.15;;;10.80;99.90;;;;;;5069221;28;20488;-67
2021/03/30 07:50:49;;;;;;;30.23;15.38;;;11.10;99.90;;;;;;5062533;28;20032;-69
2021/03/30 07:53:42;;;;;;;31.15;14.93;;;11.30;99.90;;;;;;5060945;28;20066;-67
2021/03/30 07:56:26;;;;;;;25.20;13.57;;;11.50;99.90;;;;;;5043083;28;20068;-67
2021/03/30 07:58:57;;;;;;;29.10;14.75;;;11.80;99.90;;;;;;5069203;28;20062;-67
2021/03/30 08:01:25;;;;;;;28.67;15.57;;;12.00;99.90;;;;;;5065219;28;20021;-68
2021/03/30 08:03:53;;;;;;;24.67;13.43;;;12.10;99.90;;;;;;5063793;28;20209;-67
2021/03/30 08:06:21;;;;;;;32.60;15.43;;;12.40;99.90;;;;;;5067924;28;20020;-67
2021/03/30 08:08:50;;;;;;;29.08;14.85;;;12.60;99.90;;;;;;5068831;28;20043;-68
2021/03/30 08:11:36;;;;;;;30.67;15.07;;;12.80;99.90;;;;;;5066528;28;20091;-67
2021/03/30 08:14:02;;;;;;;29.35;14.10;;;12.90;99.90;;;;;;5068982;28;20107;-68
2021/03/30 08:16:29;;;;;;;26.98;15.02;;;13.10;99.90;;;;;;5066020;28;20523;-68
2021/03/30 08:18:54;;;;;;;27.25;15.10;;;13.20;99.90;;;;;;5065689;28;20147;-68
2021/03/30 08:21:21;;;;;;;29.45;16.52;;;13.50;99.90;;;;;;5071852;28;20103;-71
2021/03/30 08:23:52;;;;;;;27.27;14.93;;;13.60;99.90;;;;;;5062118;28;20039;-72
2021/03/30 08:26:29;;;;;;;30.73;15.30;;;13.70;99.90;;;;;;5064055;28;20697;-70
2021/03/30 08:29:01;;;;;;;28.80;14.48;;;14.00;99.90;;;;;;5067568;28;20498;-71
2021/03/30 08:31:51;;;;;;;29.02;14.75;;;14.20;99.90;;;;;;5066287;28;20021;-71
2021/03/30 08:34:22;;;;;;;27.65;13.75;;;14.40;99.90;;;;;;5064973;28;20064;-72
2021/03/30 08:36:50;;;;;;;28.15;14.75;;;14.50;99.90;;;;;;5065513;28;20037;-70
2021/03/30 08:39:18;;;;;;;28.13;13.68;;;14.70;99.90;;;;;;5062039;28;20100;-69
2021/03/30 08:41:48;;;;;;;27.25;14.52;;;14.90;99.90;;;;;;5070689;28;20039;-71
2021/03/30 08:44:48;;;;;;;23.23;12.63;;;15.10;99.90;;;;;;5064868;28;20022;-71
2021/03/30 08:47:34;;;;;;;28.48;13.32;;;15.40;99.90;;;;;;5066226;28;20492;-70
2021/03/30 08:50:26;;;;;;;28.95;13.00;;;15.50;99.90;;;;;;5068897;28;20044;-68
2021/03/30 08:52:53;;;;;;;28.40;15.02;;;15.70;99.90;;;;;;5064378;28;20115;-71
2021/03/30 08:55:31;;;;;;;29.85;14.77;;;15.90;99.90;;;;;;5059380;28;20978;-71
2021/03/30 08:57:59;;;;;;;28.48;15.35;;;16.20;98.00;;;;;;5068251;28;20044;-72
2021/03/30 09:00:25;;;;;;;29.08;14.23;;;16.30;98.20;;;;;;5067825;28;20220;-72
2021/03/30 09:03:08;;;;;;;31.38;15.07;;;16.40;97.40;;;;;;5068675;28;20562;-72
2021/03/30 09:05:39;;;;;;;25.90;14.05;;;16.60;97.40;;;;;;5064270;28;20024;-72
2021/03/30 09:08:07;;;;;;;29.45;15.15;;;16.60;94.80;;;;;;5068344;28;20025;-72
2021/03/30 09:10:32;;;;;;;27.98;14.23;;;16.70;93.80;;;;;;5070767;28;20025;-69
2021/03/30 09:13:16;;;;;;;28.17;14.57;;;16.90;95.00;;;;;;5067216;28;20044;-71
2021/03/30 09:15:43;;;;;;;25.85;14.15;;;17.10;93.30;;;;;;5064329;28;20047;-72
2021/03/30 09:18:10;;;;;;;24.80;14.82;;;17.40;93.30;;;;;;5065968;28;20025;-72
2021/03/30 09:20:37;;;;;;;29.95;14.57;;;17.50;93.60;;;;;;5071794;28;20033;-72
2021/03/30 09:23:25;;;;;;;26.95;14.73;;;17.70;92.60;;;;;;5066524;28;20362;-70
2021/03/30 09:25:57;;;;;;;24.38;13.15;;;17.70;92.60;;;;;;5065422;28;20077;-72
2021/03/30 09:28:23;;;;;;;32.35;14.60;;;17.90;92.20;;;;;;5068487;28;20063;-72
2021/03/30 09:30:50;;;;;;;26.52;14.15;;;18.10;91.60;;;;;;5063318;28;20020;-71
2021/03/30 09:33:16;;;;;;;23.63;13.65;;;18.20;90.70;;;;;;5068331;28;20017;-72
2021/03/30 09:35:42;;;;;;;25.02;14.05;;;18.30;91.10;;;;;;5065719;28;20068;-67
2021/03/30 09:38:08;;;;;;;27.05;14.75;;;18.50;90.80;;;;;;5068210;28;20158;-66
2021/03/30 09:40:40;;;;;;;31.20;16.90;;;18.70;90.20;;;;;;5071621;28;20028;-67
2021/03/30 09:43:07;;;;;;;29.80;16.60;;;18.70;90.30;;;;;;5062163;28;20047;-66
2021/03/30 09:45:34;;;;;;;27.98;15.35;;;18.90;86.20;;;;;;5069455;28;20499;-68
2021/03/30 09:48:05;;;;;;;29.65;14.88;;;19.10;85.30;;;;;;5067246;28;20049;-67
2021/03/30 09:50:31;;;;;;;30.65;18.17;;;19.20;85.60;;;;;;5061216;28;20032;-66
2021/03/30 09:53:02;;;;;;;39.63;19.50;;;19.30;90.40;;;;;;5066819;28;20362;-67
2021/03/30 09:55:31;;;;;;;37.53;19.52;;;19.30;83.30;;;;;;5070400;28;20152;-66
2021/03/30 09:58:10;;;;;;;33.25;19.63;;;19.40;84.70;;;;;;5065329;28;20483;-67
2021/03/30 10:00:43;;;;;;;34.97;18.85;;;19.40;83.30;;;;;;5066806;28;20035;-66
2021/03/30 10:03:10;;;;;;;33.60;19.92;;;19.50;84.60;;;;;;5060630;28;20017;-67
2021/03/30 10:05:38;;;;;;;37.00;21.13;;;19.50;84.00;;;;;;5064402;28;20143;-66
2021/03/30 10:08:05;;;;;;;37.05;20.08;;;19.70;83.50;;;;;;5066165;28;20016;-66
2021/03/30 10:10:45;;;;;;;31.10;18.88;;;19.90;86.50;;;;;;5066019;28;20035;-66
2021/03/30 10:13:31;;;;;;;37.03;20.52;;;20.00;83.00;;;;;;5069509;28;20381;-67
2021/03/30 10:15:59;;;;;;;35.55;20.33;;;20.10;80.80;;;;;;5061195;28;20025;-67
2021/03/30 10:18:28;;;;;;;32.53;19.27;;;20.30;83.60;;;;;;5066354;28;20016;-68
2021/03/30 10:20:59;;;;;;;34.00;20.17;;;20.40;80.50;;;;;;5066220;28;20036;-68
2021/03/30 10:23:28;;;;;;;31.23;19.05;;;20.50;81.40;;;;;;5063876;28;20021;-68
2021/03/30 10:25:54;;;;;;;35.03;20.25;;;20.70;79.30;;;;;;5069158;28;20572;-71
2021/03/30 10:28:39;;;;;;;30.90;17.70;;;20.60;78.30;;;;;;5063373;28;20107;-67
2021/03/30 10:31:22;;;;;;;34.92;19.90;;;20.80;82.80;;;;;;5068977;28;20029;-67
2021/03/30 10:33:50;;;;;;;32.42;18.05;;;21.00;75.90;;;;;;5064603;28;20023;-67
2021/03/30 10:36:16;;;;;;;35.15;19.83;;;21.10;77.60;;;;;;5064449;28;20424;-67
2021/03/30 10:39:09;;;;;;;34.20;19.48;;;21.20;78.50;;;;;;5061849;28;20067;-68
2021/03/30 10:41:39;;;;;;;34.65;20.23;;;21.20;78.70;;;;;;5071170;28;20024;-67
2021/03/30 10:44:06;;;;;;;30.33;18.08;;;21.30;78.00;;;;;;5065128;28;20024;-67
2021/03/30 10:46:49;;;;;;;31.45;18.58;;;21.50;77.30;;;;;;5065157;28;20024;-68
2021/03/30 10:49:15;;;;;;;23.75;14.82;;;21.50;74.00;;;;;;5062387;28;20031;-67
2021/03/30 10:51:44;;;;;;;32.83;17.88;;;21.50;67.60;;;;;;5067631;28;20028;-67
2021/03/30 10:54:12;;;;;;;31.55;19.20;;;21.50;70.40;;;;;;5065678;28;20497;-67
2021/03/30 10:56:41;;;;;;;32.92;19.00;;;21.50;70.90;;;;;;5060175;28;20036;-67
2021/03/30 10:59:11;;;;;;;29.33;18.23;;;21.70;70.70;;;;;;5067666;28;20012;-71
2021/03/30 11:01:36;;;;;;;27.23;16.80;;;21.60;73.00;;;;;;5070562;28;20085;-67
2021/03/30 11:04:02;;;;;;;30.75;17.15;;;21.80;68.10;;;;;;5066147;28;20016;-69
2021/03/30 11:06:28;;;;;;;30.92;17.73;;;21.80;65.60;;;;;;5063715;28;20029;-67
2021/03/30 11:08:53;;;;;;;31.50;16.63;;;21.80;64.50;;;;;;5063457;28;20025;-66
2021/03/30 11:11:19;;;;;;;37.00;19.38;;;21.90;67.60;;;;;;5072773;28;20032;-67
2021/03/30 11:13:45;;;;;;;31.75;17.83;;;22.00;68.50;;;;;;5065731;28;20048;-67
2021/03/30 11:16:10;;;;;;;28.98;17.75;;;22.20;72.50;;;;;;5063395;28;20082;-70
2021/03/30 11:18:37;;;;;;;31.17;17.42;;;22.20;68.00;;;;;;5069148;28;20540;-72
2021/03/30 11:21:03;;;;;;;28.05;17.13;;;22.10;64.70;;;;;;5072394;28;20042;-73
2021/03/30 11:23:28;;;;;;;25.77;14.95;;;22.30;66.00;;;;;;5074011;28;20095;-72
2021/03/30 11:25:54;;;;;;;23.90;14.13;;;22.40;61.90;;;;;;5062118;28;20366;-73
2021/03/30 11:28:20;;;;;;;25.15;14.55;;;22.50;63.20;;;;;;5072413;28;20068;-67
2021/03/30 11:30:53;;;;;;;30.92;16.75;;;22.50;57.20;;;;;;5069102;28;20107;-72
2021/03/30 11:33:23;;;;;;;30.45;18.10;;;22.50;59.90;;;;;;5073802;28;20358;-74
2021/03/30 11:38:14;;;;;;;28.73;17.38;;;22.50;62.50;;;;;;5068626;28;20537;-73
2021/03/30 11:40:40;;;;;;;27.90;17.92;;;22.60;58.80;;;;;;5072333;28;20029;-69
2021/03/30 11:43:07;;;;;;;28.15;17.38;;;22.40;61.60;;;;;;5074389;28;20499;-72
2021/03/30 11:45:33;;;;;;;26.20;17.25;;;22.60;64.90;;;;;;5073398;28;20039;-72
2021/03/30 11:48:00;;;;;;;25.88;17.58;;;22.70;61.80;;;;;;5071045;28;20697;-72
2021/03/30 11:50:29;;;;;;;29.30;16.17;;;22.60;58.70;;;;;;5062733;28;20080;-73
2021/03/30 11:52:55;;;;;;;31.75;17.52;;;22.50;57.90;;;;;;5066962;28;20036;-70
2021/03/30 11:55:22;;;;;;;25.35;15.55;;;22.60;58.90;;;;;;5060570;28;20567;-72
2021/03/30 11:57:48;;;;;;;26.73;16.80;;;22.60;61.50;;;;;;5069403;28;20499;-72
2021/03/30 12:00:15;;;;;;;29.42;15.75;;;22.60;58.90;;;;;;5065143;28;20029;-72
2021/03/30 12:02:41;;;;;;;25.38;15.90;;;22.60;57.40;;;;;;5067373;28;20021;-71
2021/03/30 12:05:08;;;;;;;26.25;16.60;;;22.70;57.80;;;;;;5070687;28;20361;-72
2021/03/30 12:07:34;;;;;;;29.33;17.00;;;22.70;57.90;;;;;;5068012;28;20021;-72
2021/03/30 12:10:00;;;;;;;27.02;15.93;;;22.80;58.50;;;;;;5071246;28;21209;-68
2021/03/30 12:12:25;;;;;;;24.95;14.93;;;23.00;57.10;;;;;;5065153;28;20100;-67
2021/03/30 12:14:51;;;;;;;27.23;15.93;;;23.00;64.70;;;;;;5068843;28;20041;-72
2021/03/30 12:17:18;;;;;;;28.08;16.85;;;22.90;55.80;;;;;;5067879;28;20023;-70
2021/03/30 12:19:43;;;;;;;25.15;14.93;;;22.90;55.70;;;;;;5072118;28;20036;-71
2021/03/30 12:22:09;;;;;;;27.23;14.75;;;22.90;54.80;;;;;;5066788;28;20031;-72
2021/03/30 12:24:35;;;;;;;22.95;14.13;;;23.10;56.90;;;;;;5065550;28;20039;-68
2021/03/30 12:27:00;;;;;;;27.05;14.73;;;23.10;56.00;;;;;;5066438;28;20046;-68
2021/03/30 12:29:26;;;;;;;25.38;14.88;;;23.10;54.50;;;;;;5064764;28;20031;-68
2021/03/30 12:31:52;;;;;;;24.30;13.68;;;23.10;54.30;;;;;;5065994;28;20026;-68
2021/03/30 12:34:18;;;;;;;23.95;13.50;;;23.10;56.40;;;;;;5069815;28;20191;-68
2021/03/30 12:36:43;;;;;;;24.23;13.52;;;23.10;53.40;;;;;;5064212;28;20384;-68
2021/03/30 12:39:10;;;;;;;21.15;14.30;;;23.20;53.30;;;;;;5064855;28;20040;-68
2021/03/30 12:41:37;;;;;;;25.45;14.32;;;23.20;54.30;;;;;;5071835;28;20032;-68
2021/03/30 12:44:04;;;;;;;22.83;14.10;;;23.30;53.60;;;;;;5068454;28;20078;-67
2021/03/30 12:46:30;;;;;;;23.05;13.30;;;23.20;53.90;;;;;;5067783;28;20037;-70